Time;durP1;ratioP1;P1;durP2;ratioP2;P2;SDS_P1;SDS_P2;PMS_P1;PMS_P2;Temp;Humidity;BMP_temperature;BMP_pressure;BME280_temperature;BME280_humidity;BME280_pressure;Samples;Min_cycle;Max_cycle;Signal;HPM_P1;HPM_P2
2023/08/04 00:00:41;;;;;;;12.40;2.70;;;;;;;18.07;74.54;100769.31;7394827;19;20018;-67
2023/08/04 00:03:08;;;;;;;10.13;3.10;;;;;;;18.08;74.27;100770.13;7394603;19;20018;-69
2023/08/04 00:05:36;;;;;;;10.23;2.63;;;;;;;18.03;74.17;100774.16;7399560;19;20015;-78
2023/08/04 00:08:03;;;;;;;10.95;2.40;;;;;;;18.08;74.03;100778.19;7399751;19;20010;-69
2023/08/04 00:10:30;;;;;;;9.48;2.60;;;;;;;18.05;73.69;100782.03;7398560;19;20018;-74
2023/08/04 00:15:33;;;;;;;11.00;3.22;;;;;;;17.88;73.98;100786.47;7392352;19;20006;-73
2023/08/04 00:18:03;;;;;;;8.98;2.47;;;;;;;18.00;73.70;100800.41;7394418;19;20014;-66
2023/08/04 00:20:30;;;;;;;11.65;2.55;;;;;;;18.01;73.78;100796.75;7396701;19;20018;-69
2023/08/04 00:22:58;;;;;;;9.30;2.88;;;;;;;17.99;73.90;100785.34;7392834;19;20118;-64
2023/08/04 00:25:25;;;;;;;13.18;2.40;;;;;;;18.08;73.93;100802.31;7393583;19;20040;-62
2023/08/04 00:27:52;;;;;;;10.25;3.00;;;;;;;18.07;74.13;100808.66;7394261;19;20082;-60
2023/08/04 00:30:20;;;;;;;7.38;2.53;;;;;;;18.07;74.21;100811.34;7395379;19;20014;-60
2023/08/04 00:32:47;;;;;;;8.68;2.45;;;;;;;18.03;73.98;100813.50;7396089;19;20010;-74
2023/08/04 00:35:15;;;;;;;7.55;2.30;;;;;;;18.00;74.04;100811.13;7393767;19;20018;-74
2023/08/04 00:37:42;;;;;;;8.43;2.20;;;;;;;18.02;74.35;100820.72;7393272;19;20043;-70
2023/08/04 00:40:10;;;;;;;8.38;2.33;;;;;;;18.00;74.38;100820.00;7394529;19;20011;-67
2023/08/04 00:42:37;;;;;;;7.32;2.50;;;;;;;18.01;74.27;100828.94;7395155;19;20018;-61
2023/08/04 00:45:05;;;;;;;7.82;2.22;;;;;;;17.92;74.20;100829.84;7392645;19;20021;-60
2023/08/04 00:47:35;;;;;;;6.82;2.08;;;;;;;17.97;74.19;100832.88;7394831;19;20039;-60
2023/08/04 00:50:04;;;;;;;8.30;2.53;;;;;;;17.88;74.17;100829.34;7394931;19;20018;-64
2023/08/04 00:52:32;;;;;;;9.07;2.20;;;;;;;17.90;74.67;100823.84;7392889;19;20628;-65
2023/08/04 00:54:59;;;;;;;9.25;2.72;;;;;;;17.89;74.30;100831.00;7392090;19;20422;-63
2023/08/04 00:57:27;;;;;;;6.45;2.38;;;;;;;17.83;74.55;100833.50;7395592;19;20090;-65
2023/08/04 00:59:55;;;;;;;8.82;2.20;;;;;;;17.84;74.77;100827.13;7394977;19;20014;-65
2023/08/04 01:02:23;;;;;;;7.47;2.20;;;;;;;17.95;74.32;100830.38;7392700;19;20022;-65
2023/08/04 01:04:50;;;;;;;8.23;2.42;;;;;;;17.93;74.41;100832.41;7392629;19;20019;-65
2023/08/04 01:07:24;;;;;;;10.68;2.88;;;;;;;17.95;74.22;100838.41;7393812;19;20035;-64
2023/08/04 01:10:06;;;;;;;6.85;2.20;;;;;;;17.93;74.35;100831.53;7393704;19;20018;-62
2023/08/04 01:12:41;;;;;;;7.72;2.17;;;;;;;17.91;74.37;100838.91;7392388;19;20475;-62
2023/08/04 01:15:10;;;;;;;9.43;2.72;;;;;;;17.84;74.64;100830.66;7393129;19;20021;-64
2023/08/04 01:17:37;;;;;;;9.63;2.55;;;;;;;17.77;74.68;100834.97;7391566;19;20073;-65
2023/08/04 01:20:05;;;;;;;6.05;1.95;;;;;;;17.73;74.82;100834.41;7394013;19;20014;-66
2023/08/04 01:22:34;;;;;;;9.23;2.80;;;;;;;17.76;74.73;100842.16;7392706;19;20019;-67
2023/08/04 01:25:02;;;;;;;7.90;2.38;;;;;;;17.76;74.96;100842.16;7392498;19;20044;-67
2023/08/04 01:27:43;;;;;;;9.05;2.35;;;;;;;17.84;74.65;100851.25;7390644;19;20098;-64
2023/08/04 01:30:18;;;;;;;7.72;2.30;;;;;;;17.79;74.74;100849.06;7391568;19;20018;-61
2023/08/04 01:32:47;;;;;;;10.45;2.33;;;;;;;17.71;74.94;100848.97;7390631;19;20018;-66
2023/08/04 01:35:15;;;;;;;7.60;2.47;;;;;;;17.69;75.15;100856.31;7390049;19;20026;-67
2023/08/04 01:37:43;;;;;;;9.95;2.40;;;;;;;17.71;75.26;100857.84;7389122;19;20053;-70
2023/08/04 01:40:12;;;;;;;9.63;2.35;;;;;;;17.76;75.12;100858.22;7390813;19;20019;-72
2023/08/04 01:42:40;;;;;;;9.00;2.65;;;;;;;17.73;75.47;100857.66;7390000;19;20018;-68
2023/08/04 01:45:08;;;;;;;7.80;2.63;;;;;;;17.66;75.32;100860.13;7387165;19;20030;-69
2023/08/04 01:47:38;;;;;;;10.07;2.60;;;;;;;17.67;75.76;100861.84;7390845;19;20043;-68
2023/08/04 01:50:09;;;;;;;10.77;3.05;;;;;;;17.71;75.22;100855.16;7389783;19;20542;-63
2023/08/04 01:52:36;;;;;;;8.90;2.75;;;;;;;17.68;75.80;100862.66;7390762;19;20010;-64
2023/08/04 01:55:04;;;;;;;11.45;3.50;;;;;;;17.67;76.00;100861.84;7389788;19;20047;-62
2023/08/04 01:57:32;;;;;;;12.80;3.50;;;;;;;17.66;76.02;100870.84;7390195;19;20094;-63
2023/08/04 01:59:59;;;;;;;8.93;2.90;;;;;;;17.57;76.10;100858.41;7391040;19;20044;-66
2023/08/04 02:02:28;;;;;;;9.95;3.08;;;;;;;17.51;76.21;100867.91;7392037;19;20015;-68
2023/08/04 02:04:55;;;;;;;9.32;3.08;;;;;;;17.50;76.59;100870.72;7389596;19;20031;-59
2023/08/04 02:07:23;;;;;;;11.75;2.72;;;;;;;17.44;76.53;100882.91;7390954;19;20375;-63
2023/08/04 02:09:52;;;;;;;11.05;2.80;;;;;;;17.44;76.95;100880.22;7392122;19;20078;-62
2023/08/04 02:12:19;;;;;;;8.02;2.90;;;;;;;17.47;76.81;100887.09;7391442;19;20505;-73
2023/08/04 02:14:47;;;;;;;9.38;2.65;;;;;;;17.46;76.79;100877.38;7389309;19;20047;-80
2023/08/04 02:17:16;;;;;;;9.75;3.17;;;;;;;17.49;76.77;100891.31;7391706;19;20486;-66
2023/08/04 02:19:43;;;;;;;12.25;3.35;;;;;;;17.49;76.83;100893.16;7389864;19;20492;-73
2023/08/04 02:22:11;;;;;;;10.98;2.83;;;;;;;17.52;76.87;100896.38;7391126;19;20258;-65
2023/08/04 02:24:38;;;;;;;9.18;3.13;;;;;;;17.51;76.76;100899.19;7390305;19;20014;-67
2023/08/04 02:27:06;;;;;;;11.95;2.88;;;;;;;17.44;77.28;100898.13;7389312;19;20027;-68
2023/08/04 02:29:33;;;;;;;9.45;3.05;;;;;;;17.47;77.12;100900.47;7389623;19;20022;-69
2023/08/04 02:32:01;;;;;;;9.98;3.15;;;;;;;17.45;77.20;100900.66;7389316;19;20019;-70
2023/08/04 02:34:28;;;;;;;10.90;3.30;;;;;;;17.45;76.98;100908.69;7386203;19;20116;-68
2023/08/04 02:36:55;;;;;;;11.77;3.30;;;;;;;17.43;77.52;100907.97;7395770;19;20014;-64
2023/08/04 02:39:23;;;;;;;10.95;3.10;;;;;;;17.51;77.04;100913.44;7395233;19;20027;-60
2023/08/04 02:41:50;;;;;;;9.25;2.83;;;;;;;17.52;77.21;100915.09;7396747;19;20457;-62
2023/08/04 02:44:18;;;;;;;10.75;3.22;;;;;;;17.54;77.07;100918.47;7392818;19;20047;-65
2023/08/04 02:46:45;;;;;;;8.80;3.03;;;;;;;17.54;77.27;100917.63;7394758;19;20526;-64
2023/08/04 02:49:12;;;;;;;10.63;2.80;;;;;;;17.59;76.95;100925.19;7394307;19;20082;-64
2023/08/04 02:51:40;;;;;;;11.40;2.67;;;;;;;17.60;77.07;100917.00;7396128;19;20171;-64
2023/08/04 02:54:09;;;;;;;11.82;2.83;;;;;;;17.60;77.05;100916.19;7394645;19;20398;-66
2023/08/04 02:56:36;;;;;;;7.40;2.38;;;;;;;17.60;76.93;100930.41;7393690;19;20078;-67
2023/08/04 02:59:04;;;;;;;9.65;2.90;;;;;;;17.65;76.86;100921.91;7392437;19;20082;-66
2023/08/04 03:01:31;;;;;;;8.40;2.70;;;;;;;17.65;76.82;100929.94;7396445;19;20122;-67
2023/08/04 03:03:58;;;;;;;9.52;2.80;;;;;;;17.65;76.62;100922.75;7394543;19;20022;-66
2023/08/04 03:06:26;;;;;;;11.82;3.50;;;;;;;17.66;76.81;100929.78;7394659;19;20018;-66
2023/08/04 03:08:53;;;;;;;10.15;2.50;;;;;;;17.67;76.69;100928.78;7395921;19;20022;-66
2023/08/04 03:11:20;;;;;;;9.30;2.38;;;;;;;17.67;76.80;100938.66;7395387;19;20741;-66
2023/08/04 03:13:48;;;;;;;7.93;2.38;;;;;;;17.75;76.35;100934.25;7394223;19;20025;-66
2023/08/04 03:16:15;;;;;;;11.32;2.70;;;;;;;17.78;76.00;100936.63;7392603;19;20464;-66
2023/08/04 03:18:42;;;;;;;11.23;2.65;;;;;;;17.77;76.05;100937.59;7394426;19;20071;-65
2023/08/04 03:21:10;;;;;;;8.48;2.47;;;;;;;17.77;75.88;100940.28;7395981;19;20081;-66
2023/08/04 03:23:37;;;;;;;7.00;2.35;;;;;;;17.75;76.05;100936.09;7395733;19;20018;-65
2023/08/04 03:26:04;;;;;;;8.45;2.17;;;;;;;17.77;76.25;100942.13;7394176;19;20016;-65
2023/08/04 03:28:31;;;;;;;10.48;2.95;;;;;;;17.80;76.02;100943.66;7395590;19;20077;-63
2023/08/04 03:30:59;;;;;;;10.65;3.00;;;;;;;17.68;75.98;100951.91;7394979;19;20078;-63
2023/08/04 03:33:26;;;;;;;9.68;2.55;;;;;;;17.73;76.08;100948.75;7394193;19;20504;-63
2023/08/04 03:35:53;;;;;;;8.13;2.60;;;;;;;17.75;75.87;100949.47;7394481;19;20025;-64
2023/08/04 03:38:21;;;;;;;8.10;2.40;;;;;;;17.82;75.90;100953.22;7394303;19;20018;-63
2023/08/04 03:40:48;;;;;;;9.95;2.50;;;;;;;17.84;75.69;100958.41;7393145;19;20015;-63
2023/08/04 03:43:16;;;;;;;8.75;2.17;;;;;;;17.82;75.50;100968.44;7392263;19;20703;-63
2023/08/04 03:45:43;;;;;;;8.30;2.55;;;;;;;17.84;75.41;100963.78;7393512;19;20029;-64
2023/08/04 03:48:10;;;;;;;5.97;2.22;;;;;;;17.87;75.73;100966.16;7393595;19;20018;-64
2023/08/04 03:50:38;;;;;;;8.00;2.20;;;;;;;17.85;75.79;100966.28;7394491;19;20018;-63
2023/08/04 03:53:05;;;;;;;7.35;2.35;;;;;;;17.89;75.63;100973.00;7393554;19;20509;-64
2023/08/04 03:55:34;;;;;;;9.13;2.58;;;;;;;17.80;75.72;100971.28;7393464;19;20019;-64
2023/08/04 03:58:01;;;;;;;7.03;2.10;;;;;;;17.88;75.52;100975.88;7393502;19;20014;-64
2023/08/04 04:00:30;;;;;;;7.88;2.15;;;;;;;17.89;75.47;100974.84;7393875;19;20029;-63
2023/08/04 04:02:58;;;;;;;10.18;2.40;;;;;;;17.82;75.55;100974.66;7393969;19;20025;-63
2023/08/04 04:05:25;;;;;;;8.50;2.47;;;;;;;17.84;75.87;100985.22;7393315;19;20023;-64
2023/08/04 04:07:53;;;;;;;9.32;2.40;;;;;;;17.88;75.43;100983.91;7393761;19;20040;-63
2023/08/04 04:10:20;;;;;;;8.50;2.35;;;;;;;17.88;75.55;100986.59;7393859;19;20014;-65
2023/08/04 04:12:47;;;;;;;9.75;2.72;;;;;;;17.83;75.54;100983.53;7393295;19;20051;-64
2023/08/04 04:15:15;;;;;;;9.38;2.40;;;;;;;17.82;75.60;100984.50;7392887;19;20042;-64
2023/08/04 04:17:42;;;;;;;7.55;2.30;;;;;;;17.74;75.71;100972.72;7394015;19;20461;-65
2023/08/04 04:20:10;;;;;;;6.88;2.20;;;;;;;17.73;75.97;100980.91;7391680;19;20014;-64
2023/08/04 04:22:37;;;;;;;10.10;2.20;;;;;;;17.76;75.69;100983.31;7396453;19;20022;-65
2023/08/04 04:25:05;;;;;;;10.48;2.10;;;;;;;17.80;75.97;100991.88;7392272;19;20086;-65
2023/08/04 04:27:32;;;;;;;11.75;2.80;;;;;;;17.76;76.01;100986.81;7392949;19;20085;-66
2023/08/04 04:29:59;;;;;;;8.40;2.30;;;;;;;17.79;75.56;100985.69;7392891;19;20019;-65
2023/08/04 04:32:27;;;;;;;8.05;2.42;;;;;;;17.83;75.78;100992.41;7392528;19;20015;-65
2023/08/04 04:34:55;;;;;;;8.55;2.45;;;;;;;17.81;75.74;101001.59;7389972;19;20014;-65
2023/08/04 04:37:22;;;;;;;8.68;2.63;;;;;;;17.82;76.02;100998.78;7392376;19;20086;-65
2023/08/04 04:39:50;;;;;;;9.48;2.38;;;;;;;17.81;75.82;101001.59;7390919;19;20081;-65
2023/08/04 04:42:17;;;;;;;9.15;2.30;;;;;;;17.80;75.70;101003.44;7392728;19;20078;-65
2023/08/04 04:44:44;;;;;;;7.85;2.42;;;;;;;17.74;76.35;100991.47;7390580;19;20022;-65
2023/08/04 04:47:12;;;;;;;10.38;2.75;;;;;;;17.74;76.23;100990.59;7392126;19;20024;-66
2023/08/04 04:49:39;;;;;;;6.93;2.25;;;;;;;17.78;76.04;101008.94;7390604;19;20015;-64
2023/08/04 04:52:09;;;;;;;6.65;2.40;;;;;;;17.80;76.07;101013.31;7392012;19;20022;-65
2023/08/04 04:54:38;;;;;;;7.80;2.45;;;;;;;17.80;75.90;101024.84;7388412;19;20022;-66
2023/08/04 04:57:06;;;;;;;6.85;2.20;;;;;;;17.80;76.06;101016.81;7391832;19;20015;-66
2023/08/04 04:59:34;;;;;;;8.43;2.40;;;;;;;17.85;76.04;101027.91;7388456;19;20014;-65
2023/08/04 05:02:01;;;;;;;8.65;2.83;;;;;;;17.78;75.89;101014.31;7391930;19;20035;-65
2023/08/04 05:04:29;;;;;;;11.20;2.70;;;;;;;17.76;76.33;101029.69;7390486;19;20018;-65
2023/08/04 05:06:56;;;;;;;12.40;2.83;;;;;;;17.71;76.22;101023.91;7391468;19;20018;-65
2023/08/04 05:09:23;;;;;;;8.95;2.60;;;;;;;17.73;76.07;101027.28;7391655;19;20018;-62
2023/08/04 05:11:51;;;;;;;8.85;2.40;;;;;;;17.79;76.03;101031.22;7391597;19;20015;-61
2023/08/04 05:14:18;;;;;;;8.20;2.80;;;;;;;17.83;75.92;101029.09;7389931;19;20397;-62
2023/08/04 05:16:45;;;;;;;10.23;2.67;;;;;;;17.82;75.69;101032.72;7390760;19;20504;-63
2023/08/04 05:19:13;;;;;;;10.40;2.78;;;;;;;17.84;75.57;101039.63;7390315;19;20030;-62
2023/08/04 05:21:40;;;;;;;7.38;2.28;;;;;;;17.84;75.87;101033.44;7392560;19;20018;-64
2023/08/04 05:24:08;;;;;;;9.50;2.58;;;;;;;17.92;75.64;101036.19;7390421;19;20010;-66
2023/08/04 05:26:35;;;;;;;8.00;2.53;;;;;;;17.96;75.42;101040.25;7390218;19;20505;-65
2023/08/04 05:29:02;;;;;;;8.85;2.10;;;;;;;17.99;75.30;101038.09;7390563;19;20026;-66
2023/08/04 05:31:29;;;;;;;10.88;2.58;;;;;;;17.99;75.43;101037.25;7389877;19;20476;-63
2023/08/04 05:33:57;;;;;;;9.98;2.75;;;;;;;17.98;75.86;101047.13;7390281;19;20023;-63
2023/08/04 05:36:24;;;;;;;10.10;2.80;;;;;;;18.03;75.25;101054.72;7389955;19;20333;-63
2023/08/04 05:38:52;;;;;;;9.20;2.70;;;;;;;18.09;75.49;101056.78;7390959;19;20019;-65
2023/08/04 05:41:19;;;;;;;9.73;2.67;;;;;;;18.05;75.28;101044.69;7391092;19;20019;-64
2023/08/04 05:43:46;;;;;;;10.45;2.80;;;;;;;18.03;75.65;101042.16;7389919;19;20015;-64
2023/08/04 05:46:15;;;;;;;6.32;2.22;;;;;;;18.07;75.06;101056.09;7389358;19;20022;-65
2023/08/04 05:48:42;;;;;;;10.43;2.70;;;;;;;18.04;75.27;101059.06;7390776;19;20505;-65
2023/08/04 05:51:10;;;;;;;9.93;2.53;;;;;;;18.03;75.22;101054.72;7390214;19;20500;-65
2023/08/04 05:53:38;;;;;;;9.27;2.50;;;;;;;18.05;74.98;101063.44;7389739;19;20152;-65
2023/08/04 05:56:05;;;;;;;9.63;2.10;;;;;;;18.16;74.76;101068.56;7389784;19;20098;-63
2023/08/04 05:58:32;;;;;;;7.68;2.17;;;;;;;18.12;74.95;101069.84;7389891;19;20018;-64
2023/08/04 06:01:00;;;;;;;11.85;2.33;;;;;;;18.17;74.45;101075.63;7389924;19;20035;-64
2023/08/04 06:03:27;;;;;;;7.75;2.00;;;;;;;18.09;74.32;101062.16;7388709;19;20239;-68
2023/08/04 06:05:55;;;;;;;5.65;1.88;;;;;;;18.17;74.37;101075.63;7389003;19;20014;-66
2023/08/04 06:08:22;;;;;;;7.25;2.15;;;;;;;18.21;74.21;101066.25;7389874;19;20019;-65
2023/08/04 06:10:50;;;;;;;6.40;1.98;;;;;;;18.30;73.90;101087.78;7395902;19;20022;-65
2023/08/04 06:13:17;;;;;;;7.35;2.00;;;;;;;18.35;73.79;101094.34;7396613;19;20356;-62
2023/08/04 06:15:45;;;;;;;11.80;2.50;;;;;;;18.21;74.06;101087.72;7396483;19;20043;-62
2023/08/04 06:18:14;;;;;;;7.95;2.13;;;;;;;18.11;74.43;101094.16;7397080;19;20035;-62
2023/08/04 06:20:41;;;;;;;7.47;2.10;;;;;;;18.07;75.05;101095.44;7392784;19;20488;-64
2023/08/04 06:23:09;;;;;;;7.65;2.20;;;;;;;18.04;75.50;101099.28;7400808;19;20035;-63
2023/08/04 06:25:36;;;;;;;6.45;1.98;;;;;;;18.08;75.69;101091.75;7396120;19;20085;-62
2023/08/04 06:28:04;;;;;;;5.47;1.90;;;;;;;18.20;75.75;101102.13;7396830;19;20031;-62
2023/08/04 06:30:31;;;;;;;9.30;2.30;;;;;;;18.21;75.26;101102.97;7396446;19;20092;-64
2023/08/04 06:32:58;;;;;;;8.02;2.00;;;;;;;18.31;75.21;101102.84;7396606;19;20037;-62
2023/08/04 06:35:26;;;;;;;6.50;2.25;;;;;;;18.35;75.09;101109.59;7395525;19;20117;-60
2023/08/04 06:37:53;;;;;;;7.88;2.13;;;;;;;18.32;75.04;101113.44;7396630;19;20014;-60
2023/08/04 06:40:21;;;;;;;5.82;1.83;;;;;;;18.38;74.91;101110.13;7395572;19;20031;-58
2023/08/04 06:42:48;;;;;;;6.43;1.92;;;;;;;18.47;74.96;101121.78;7396597;19;20039;-58
2023/08/04 06:45:15;;;;;;;8.10;2.00;;;;;;;18.56;74.45;101114.63;7393482;19;20018;-58
2023/08/04 06:47:43;;;;;;;7.05;1.95;;;;;;;18.52;74.28;101125.66;7396392;19;20074;-58
2023/08/04 06:50:10;;;;;;;5.60;1.80;;;;;;;18.57;73.86;101122.50;7396303;19;20018;-58
2023/08/04 06:52:38;;;;;;;6.07;1.73;;;;;;;18.48;73.82;101128.81;7394843;19;20495;-61
2023/08/04 06:55:05;;;;;;;7.07;2.13;;;;;;;18.41;73.65;101133.13;7393555;19;20010;-62
2023/08/04 06:57:32;;;;;;;5.75;1.85;;;;;;;18.54;73.60;101136.22;7395383;19;20513;-62
2023/08/04 07:00:00;;;;;;;4.78;1.90;;;;;;;18.62;73.30;101140.81;7394322;19;20110;-62
2023/08/04 07:02:28;;;;;;;7.97;2.10;;;;;;;18.58;73.14;101137.59;7393750;19;20491;-61
2023/08/04 07:04:56;;;;;;;6.28;1.90;;;;;;;18.59;72.89;101139.31;7393263;19;20101;-61
2023/08/04 07:07:24;;;;;;;6.93;1.90;;;;;;;18.59;72.88;101146.53;7393661;19;20024;-61
2023/08/04 07:09:51;;;;;;;8.45;1.92;;;;;;;18.62;72.66;101144.38;7395364;19;20014;-61
2023/08/04 07:12:18;;;;;;;7.55;1.83;;;;;;;18.72;72.43;101147.81;7395630;19;20373;-62
2023/08/04 07:14:46;;;;;;;10.35;2.15;;;;;;;18.85;72.29;101147.41;7393102;19;20468;-62
2023/08/04 07:17:13;;;;;;;5.97;2.03;;;;;;;18.82;72.14;101150.41;7395157;19;20015;-62
2023/08/04 07:19:40;;;;;;;7.75;2.13;;;;;;;18.81;72.28;101153.22;7392564;19;20018;-61
2023/08/04 07:22:08;;;;;;;7.82;2.00;;;;;;;18.74;71.94;101151.19;7393614;19;20492;-61
2023/08/04 07:24:35;;;;;;;6.85;1.55;;;;;;;18.71;71.79;101153.34;7392674;19;20094;-61
2023/08/04 07:27:03;;;;;;;6.55;1.70;;;;;;;18.67;72.20;101150.09;7395134;19;20039;-61
2023/08/04 07:29:33;;;;;;;7.13;1.63;;;;;;;18.79;71.92;101141.84;7394932;19;20023;-61
2023/08/04 07:32:01;;;;;;;5.70;1.58;;;;;;;18.84;71.29;101144.88;7395021;19;20024;-61
2023/08/04 07:34:28;;;;;;;5.95;1.50;;;;;;;18.92;71.07;101147.59;7393240;19;20027;-61
2023/08/04 07:36:56;;;;;;;2.97;1.38;;;;;;;18.94;71.08;101143.78;7394143;19;20018;-62
2023/08/04 07:39:23;;;;;;;4.13;1.50;;;;;;;18.90;70.60;101149.63;7393993;19;20022;-61
2023/08/04 07:41:51;;;;;;;7.80;1.70;;;;;;;18.97;70.40;101153.38;7393107;19;20035;-60
2023/08/04 07:44:18;;;;;;;4.57;1.40;;;;;;;19.00;69.89;101155.72;7393141;19;20505;-61
2023/08/04 07:46:45;;;;;;;6.45;1.30;;;;;;;19.06;70.00;101165.00;7392066;19;20019;-61
2023/08/04 07:49:13;;;;;;;7.55;1.75;;;;;;;19.08;69.56;101155.78;7392625;19;20011;-60
2023/08/04 07:51:40;;;;;;;4.78;1.85;;;;;;;19.11;70.01;101170.72;7392317;19;20021;-60
2023/08/04 07:54:08;;;;;;;6.20;1.30;;;;;;;19.14;70.09;101157.81;7393177;19;20086;-60
2023/08/04 07:56:35;;;;;;;7.03;1.55;;;;;;;19.10;70.04;101169.03;7393118;19;20032;-61
2023/08/04 07:59:02;;;;;;;4.93;1.60;;;;;;;19.11;69.83;101168.88;7393636;19;20031;-61
2023/08/04 08:01:30;;;;;;;3.97;1.75;;;;;;;19.27;69.64;101175.34;7391371;19;20097;-62
2023/08/04 08:03:57;;;;;;;3.22;1.50;;;;;;;19.30;69.68;101175.03;7392837;19;20014;-63
2023/08/04 08:06:25;;;;;;;3.88;1.40;;;;;;;19.13;69.75;101156.16;7392598;19;20089;-62
2023/08/04 08:08:52;;;;;;;7.55;1.83;;;;;;;19.27;69.69;101175.34;7393812;19;20452;-62
2023/08/04 08:11:20;;;;;;;4.22;1.40;;;;;;;19.41;69.64;101169.38;7393408;19;20014;-65
2023/08/04 08:13:47;;;;;;;6.10;1.88;;;;;;;19.61;69.32;101169.97;7393033;19;20022;-61
2023/08/04 08:16:15;;;;;;;8.25;1.60;;;;;;;19.77;69.17;101174.63;7392752;19;20019;-63
2023/08/04 08:18:46;;;;;;;7.25;1.60;;;;;;;19.98;68.62;101182.22;7393400;19;20010;-63
2023/08/04 08:21:13;;;;;;;6.15;1.60;;;;;;;20.01;67.83;101176.53;7392352;19;20500;-62
2023/08/04 08:23:41;;;;;;;4.57;1.63;;;;;;;20.00;68.01;101189.13;7392220;19;20089;-62
2023/08/04 08:26:08;;;;;;;4.05;1.35;;;;;;;19.90;67.79;101181.19;7392138;19;20035;-63
2023/08/04 08:28:35;;;;;;;3.80;1.35;;;;;;;19.87;67.60;101184.19;7392695;19;20022;-72
2023/08/04 08:31:03;;;;;;;4.00;1.20;;;;;;;19.95;67.31;101186.91;7393256;19;20036;-71
2023/08/04 08:33:30;;;;;;;6.05;1.45;;;;;;;20.09;66.92;101188.13;7392395;19;20031;-64
2023/08/04 08:35:58;;;;;;;4.85;1.17;;;;;;;20.17;66.82;101198.91;7392260;19;20022;-65
2023/08/04 08:38:26;;;;;;;5.97;1.50;;;;;;;20.06;66.66;101199.22;7391919;19;20018;-64
2023/08/04 08:40:53;;;;;;;6.50;1.40;;;;;;;20.01;66.90;101201.56;7389870;19;20025;-67
2023/08/04 08:43:20;;;;;;;6.00;1.30;;;;;;;19.95;67.30;101200.34;7391591;19;20428;-65
2023/08/04 08:45:50;;;;;;;6.00;1.50;;;;;;;19.90;67.17;101210.75;7389675;19;20031;-65
2023/08/04 08:48:19;;;;;;;4.28;1.30;;;;;;;19.93;67.44;101209.59;7392421;19;20064;-65
2023/08/04 08:50:58;;;;;;;4.05;1.33;;;;;;;20.04;67.05;101206.63;7392386;19;20043;-65
2023/08/04 08:53:29;;;;;;;5.72;1.40;;;;;;;19.88;67.78;101218.16;7392149;19;20339;-65
2023/08/04 08:56:00;;;;;;;6.00;1.65;;;;;;;19.75;68.24;101217.75;7391183;19;20425;-63
2023/08/04 08:58:31;;;;;;;6.35;1.48;;;;;;;19.83;67.97;101214.25;7390758;19;20018;-65
2023/08/04 09:01:00;;;;;;;2.75;1.20;;;;;;;19.93;67.80;101218.50;7390363;19;20047;-64
2023/08/04 09:03:28;;;;;;;5.20;1.20;;;;;;;20.09;66.43;101216.88;7390199;19;20023;-66
2023/08/04 09:05:56;;;;;;;4.78;1.20;;;;;;;20.02;65.53;101214.00;7390836;19;20035;-67
2023/08/04 09:08:23;;;;;;;4.15;1.20;;;;;;;20.02;64.85;101215.84;7392404;19;20378;-67
2023/08/04 09:10:50;;;;;;;4.45;1.13;;;;;;;20.06;64.20;101217.19;7389792;19;20022;-64
2023/08/04 09:13:18;;;;;;;2.60;0.80;;;;;;;20.09;64.15;101216.88;7391332;19;20018;-61
2023/08/04 09:15:51;;;;;;;2.95;1.00;;;;;;;20.15;64.22;101225.13;7390885;19;20052;-64
2023/08/04 09:18:38;;;;;;;3.30;1.05;;;;;;;20.13;64.04;101227.13;7389598;19;20029;-63
2023/08/04 09:21:12;;;;;;;4.10;0.80;;;;;;;20.14;63.34;101214.53;7389981;19;20019;-66
2023/08/04 09:23:47;;;;;;;2.47;0.70;;;;;;;20.27;62.56;101232.91;7390547;19;20514;-65
2023/08/04 09:26:15;;;;;;;1.02;0.70;;;;;;;20.25;62.62;101226.81;7390386;19;20023;-63
2023/08/04 09:28:43;;;;;;;2.15;0.65;;;;;;;20.14;62.80;101231.50;7391310;19;20034;-64
2023/08/04 09:31:13;;;;;;;3.00;0.85;;;;;;;20.21;62.70;101229.84;7391056;19;20027;-65
2023/08/04 09:33:43;;;;;;;4.10;0.60;;;;;;;20.17;61.95;101228.50;7390706;19;20019;-66
2023/08/04 09:36:13;;;;;;;2.20;0.60;;;;;;;20.15;62.09;101222.44;7390446;19;20018;-67
2023/08/04 09:38:40;;;;;;;3.83;0.88;;;;;;;20.17;62.17;101230.34;7390171;19;20018;-65
2023/08/04 09:41:13;;;;;;;2.90;0.68;;;;;;;20.14;62.30;101231.50;7388364;19;20019;-63
2023/08/04 09:43:45;;;;;;;2.13;0.60;;;;;;;20.16;61.80;101226.81;7389162;19;20517;-63
2023/08/04 09:46:13;;;;;;;3.97;0.70;;;;;;;20.23;61.10;101237.75;7389172;19;20035;-66
2023/08/04 09:48:40;;;;;;;2.03;0.60;;;;;;;20.19;61.11;101234.56;7389041;19;20022;-64
2023/08/04 09:51:19;;;;;;;3.03;0.90;;;;;;;20.20;60.56;101228.16;7391282;19;20133;-65
2023/08/04 09:54:08;;;;;;;1.77;0.52;;;;;;;20.23;60.38;101232.38;7390101;19;20023;-65
2023/08/04 09:56:50;;;;;;;1.90;0.70;;;;;;;20.40;59.66;101231.41;7389997;19;20018;-66
2023/08/04 09:59:20;;;;;;;3.42;0.85;;;;;;;20.52;59.23;101231.09;7390814;19;20487;-65
2023/08/04 10:06:11;;;;;;;2.42;0.90;;;;;;;20.47;59.37;101236.97;7384027;19;20014;-66
2023/08/04 10:08:40;;;;;;;2.72;0.80;;;;;;;20.59;59.51;101237.50;7388605;19;20015;-67
2023/08/04 10:11:08;;;;;;;3.70;1.05;;;;;;;20.74;58.55;101238.53;7392145;19;20015;-67
2023/08/04 10:13:41;;;;;;;2.72;1.00;;;;;;;20.81;57.54;101244.94;7389824;19;20550;-67
2023/08/04 10:16:12;;;;;;;2.33;0.75;;;;;;;20.91;57.44;101234.00;7391030;19;20019;-67
2023/08/04 10:19:00;;;;;;;3.22;1.00;;;;;;;21.00;58.37;101245.59;7390271;19;20011;-66
2023/08/04 10:21:33;;;;;;;2.72;0.82;;;;;;;20.93;58.36;101237.34;7386753;19;20487;-66
2023/08/04 10:24:06;;;;;;;3.50;0.90;;;;;;;20.92;58.48;101251.84;7386654;19;20523;-67
2023/08/04 10:26:42;;;;;;;1.77;0.65;;;;;;;20.95;58.34;101243.44;7388256;19;20039;-66
2023/08/04 10:29:10;;;;;;;2.90;0.80;;;;;;;21.01;58.31;101248.13;7390148;19;20423;-66
2023/08/04 10:31:50;;;;;;;2.85;1.00;;;;;;;21.13;57.83;101245.91;7391399;19;20026;-65
2023/08/04 10:34:31;;;;;;;3.25;1.10;;;;;;;20.93;59.24;101245.44;7391245;19;20015;-66
2023/08/04 10:37:04;;;;;;;3.45;1.20;;;;;;;20.86;59.25;101236.34;7389973;19;20111;-66
2023/08/04 10:39:44;;;;;;;2.35;0.90;;;;;;;20.79;59.70;101243.41;7392003;19;20006;-65
2023/08/04 10:42:11;;;;;;;5.63;1.25;;;;;;;20.80;60.76;101245.13;7389731;19;20089;-65
2023/08/04 10:44:56;;;;;;;3.17;1.10;;;;;;;21.15;58.21;101233.13;7387252;19;20381;-66
2023/08/04 10:47:35;;;;;;;4.38;0.98;;;;;;;21.42;57.51;101243.56;7389024;19;20019;-66
2023/08/04 10:50:03;;;;;;;3.00;1.27;;;;;;;21.50;57.31;101234.59;7388240;19;20084;-65
2023/08/04 10:52:32;;;;;;;2.47;0.98;;;;;;;21.56;57.92;101243.84;7388811;19;20018;-65
2023/08/04 10:55:04;;;;;;;4.32;1.30;;;;;;;21.79;57.02;101233.19;7385817;19;20022;-66
2023/08/04 10:57:33;;;;;;;2.97;1.20;;;;;;;21.68;57.93;101249.72;7393853;19;20491;-66
2023/08/04 11:00:02;;;;;;;4.75;1.40;;;;;;;21.41;58.24;101247.28;7393534;19;20368;-66
2023/08/04 11:02:30;;;;;;;5.25;1.60;;;;;;;21.18;58.83;101259.75;7397402;19;20022;-66
2023/08/04 11:04:58;;;;;;;6.43;1.20;;;;;;;20.78;60.93;101253.34;7393109;19;20022;-62
2023/08/04 11:07:25;;;;;;;4.15;1.30;;;;;;;20.60;62.55;101256.16;7395248;19;20021;-62
2023/08/04 11:09:53;;;;;;;3.45;1.52;;;;;;;20.54;62.95;101264.94;7395688;19;20022;-62
2023/08/04 11:12:21;;;;;;;4.03;1.80;;;;;;;20.45;64.09;101264.03;7394691;19;20086;-62
2023/08/04 11:14:51;;;;;;;5.10;1.60;;;;;;;20.57;63.26;101267.28;7390740;19;20402;-62
2023/08/04 11:17:20;;;;;;;2.75;1.20;;;;;;;20.66;62.69;101260.06;7393084;19;20448;-62
2023/08/04 11:19:49;;;;;;;3.97;1.50;;;;;;;20.57;62.42;101253.84;7395026;19;20014;-61
2023/08/04 11:22:20;;;;;;;4.45;1.10;;;;;;;20.77;61.24;101262.44;7395367;19;20018;-62
2023/08/04 11:24:50;;;;;;;3.20;0.98;;;;;;;20.92;60.15;101263.44;7390872;19;20043;-62
2023/08/04 11:27:19;;;;;;;3.70;1.20;;;;;;;21.18;58.45;101259.75;7393422;19;20019;-61
2023/08/04 11:29:53;;;;;;;3.03;1.00;;;;;;;21.41;58.14;101257.22;7393289;19;20748;-62
2023/08/04 11:32:22;;;;;;;2.53;0.85;;;;;;;21.29;58.65;101263.91;7394627;19;20499;-62
2023/08/04 11:34:52;;;;;;;5.70;1.33;;;;;;;21.42;58.24;101266.97;7391917;19;20118;-62
2023/08/04 11:37:23;;;;;;;2.25;0.98;;;;;;;21.44;57.83;101267.63;7394601;19;20015;-62